Time;durP1;ratioP1;P1;durP2;ratioP2;P2;SDS_P1;SDS_P2;PMS_P1;PMS_P2;Temp;Humidity;BMP_temperature;BMP_pressure;BME280_temperature;BME280_humidity;BME280_pressure;Samples;Min_cycle;Max_cycle;Signal;HPM_P1;HPM_P2
2021/08/31 00:01:09;;;;;;;29.45;16.77;;;12.20;99.90;;;;;;5073664;28;20051;-77
2021/08/31 00:03:34;;;;;;;25.27;16.40;;;12.30;99.90;;;;;;5083700;28;20020;-78
2021/08/31 00:06:00;;;;;;;25.25;17.17;;;12.20;99.90;;;;;;5094012;28;20453;-78
2021/08/31 00:08:26;;;;;;;24.67;16.40;;;12.20;99.90;;;;;;5092141;28;20032;-78
2021/08/31 00:10:51;;;;;;;23.13;15.63;;;12.20;99.90;;;;;;5095114;28;20073;-77
2021/08/31 00:13:17;;;;;;;22.63;15.65;;;12.20;99.90;;;;;;5085391;28;20020;-77
2021/08/31 00:15:43;;;;;;;22.45;15.25;;;12.20;99.90;;;;;;5100791;28;20055;-77
2021/08/31 00:18:09;;;;;;;21.20;14.88;;;12.20;99.90;;;;;;5109175;28;20024;-77
2021/08/31 00:20:34;;;;;;;22.75;15.52;;;12.20;99.90;;;;;;5087747;28;20060;-77
2021/08/31 00:23:00;;;;;;;24.10;15.95;;;12.20;99.90;;;;;;5090913;28;20538;-77
2021/08/31 00:25:26;;;;;;;20.10;13.48;;;12.20;99.90;;;;;;5091458;28;20044;-77
2021/08/31 00:27:51;;;;;;;16.75;12.75;;;12.20;99.90;;;;;;5092190;28;20133;-77
2021/08/31 00:30:17;;;;;;;21.52;14.95;;;12.10;99.90;;;;;;5094694;28;20449;-77
2021/08/31 00:32:43;;;;;;;21.80;14.70;;;12.20;99.90;;;;;;5088253;28;20071;-78
2021/08/31 00:35:09;;;;;;;22.85;15.13;;;12.20;99.90;;;;;;5085530;28;20036;-77
2021/08/31 00:37:35;;;;;;;25.20;16.00;;;12.20;99.90;;;;;;5090512;28;20027;-77
2021/08/31 00:40:01;;;;;;;27.40;18.42;;;12.10;99.90;;;;;;5094675;28;20028;-77
2021/08/31 00:42:26;;;;;;;26.85;18.52;;;12.20;99.90;;;;;;5076882;28;20466;-78
2021/08/31 00:44:52;;;;;;;25.45;17.35;;;12.20;99.90;;;;;;5084765;28;20035;-77
2021/08/31 00:47:18;;;;;;;24.52;16.92;;;12.20;99.90;;;;;;5093202;28;20028;-77
2021/08/31 00:49:43;;;;;;;23.60;15.88;;;12.20;99.90;;;;;;5092971;28;20031;-77
2021/08/31 00:52:12;;;;;;;27.13;17.75;;;12.20;99.90;;;;;;5094390;28;20500;-78
2021/08/31 00:54:37;;;;;;;28.85;17.98;;;12.20;99.90;;;;;;5085639;28;20048;-77
2021/08/31 00:57:05;;;;;;;28.50;19.20;;;12.20;99.90;;;;;;5086521;28;20457;-77
2021/08/31 00:59:34;;;;;;;36.40;21.10;;;12.20;99.90;;;;;;5087909;28;20420;-77
2021/08/31 01:02:00;;;;;;;31.88;20.75;;;12.20;99.90;;;;;;5080332;28;20389;-77
2021/08/31 01:04:30;;;;;;;33.25;19.65;;;12.20;99.90;;;;;;5092727;28;20035;-77
2021/08/31 01:06:56;;;;;;;37.08;21.52;;;12.20;99.90;;;;;;5092710;28;20050;-77
2021/08/31 01:09:23;;;;;;;38.40;22.00;;;12.20;99.90;;;;;;5072490;28;20082;-77
2021/08/31 01:11:50;;;;;;;39.55;21.98;;;12.30;99.90;;;;;;5072516;28;20081;-77
2021/08/31 01:14:17;;;;;;;33.88;21.88;;;12.30;99.90;;;;;;5085374;28;20036;-77
2021/08/31 01:16:44;;;;;;;40.20;22.98;;;12.30;99.90;;;;;;5086332;28;20031;-77
2021/08/31 01:19:11;;;;;;;40.30;23.92;;;12.30;99.90;;;;;;5083573;28;20496;-77
2021/08/31 01:21:37;;;;;;;38.83;22.80;;;12.30;99.90;;;;;;5092594;28;20035;-77
2021/08/31 01:24:03;;;;;;;36.92;23.13;;;12.30;99.90;;;;;;5087927;28;20040;-77
2021/08/31 01:26:29;;;;;;;37.45;22.33;;;12.30;99.90;;;;;;5073380;28;20016;-77
2021/08/31 01:28:55;;;;;;;44.15;23.75;;;12.30;99.90;;;;;;5084424;28;20504;-77
2021/08/31 01:31:20;;;;;;;36.00;20.83;;;12.30;99.90;;;;;;5083881;28;20057;-77
2021/08/31 01:33:46;;;;;;;34.05;20.48;;;12.30;99.90;;;;;;5082086;28;20035;-77
2021/08/31 01:36:20;;;;;;;33.38;19.40;;;12.30;99.90;;;;;;5078367;28;20028;-77
2021/08/31 01:38:47;;;;;;;32.35;20.67;;;12.30;99.90;;;;;;5078634;28;20036;-77
2021/08/31 01:41:13;;;;;;;34.60;20.38;;;12.30;99.90;;;;;;5092160;28;20073;-77
2021/08/31 01:43:38;;;;;;;29.30;18.90;;;12.30;99.90;;;;;;5084800;28;20024;-77
2021/08/31 01:46:05;;;;;;;27.75;18.30;;;12.30;99.90;;;;;;5092178;28;20481;-77
2021/08/31 01:48:30;;;;;;;28.08;17.98;;;12.30;99.90;;;;;;5089579;28;20051;-77
2021/08/31 01:50:56;;;;;;;23.02;16.33;;;12.30;99.90;;;;;;5074113;28;20032;-78
2021/08/31 01:53:22;;;;;;;27.60;17.80;;;12.30;99.90;;;;;;5091939;28;20054;-77
2021/08/31 01:55:47;;;;;;;28.83;18.83;;;12.30;99.90;;;;;;5092808;28;20401;-77
2021/08/31 01:58:13;;;;;;;30.48;19.17;;;12.30;99.90;;;;;;5091627;28;20024;-77
2021/08/31 02:00:39;;;;;;;28.50;18.52;;;12.30;99.90;;;;;;5091818;28;20081;-77
2021/08/31 02:03:05;;;;;;;35.72;20.27;;;12.30;99.90;;;;;;5089203;28;20044;-77
2021/08/31 02:05:30;;;;;;;36.75;20.83;;;12.30;99.90;;;;;;5082060;28;20063;-77
2021/08/31 02:07:56;;;;;;;30.23;19.35;;;12.30;99.90;;;;;;5090199;28;20110;-77
2021/08/31 02:10:22;;;;;;;28.42;17.73;;;12.30;99.90;;;;;;5072846;28;20478;-77
2021/08/31 02:12:48;;;;;;;24.17;15.82;;;12.30;99.90;;;;;;5078869;28;20016;-77
2021/08/31 02:15:14;;;;;;;27.20;16.23;;;12.30;99.90;;;;;;5091521;28;20036;-77
2021/08/31 02:17:39;;;;;;;21.92;14.38;;;12.30;99.90;;;;;;5092454;28;20026;-77
2021/08/31 02:20:06;;;;;;;23.27;14.30;;;12.30;99.90;;;;;;5088563;28;20020;-77
2021/08/31 02:22:32;;;;;;;24.95;15.88;;;12.30;99.90;;;;;;5092930;28;20023;-77
2021/08/31 02:24:57;;;;;;;24.55;14.95;;;12.30;99.90;;;;;;5091033;28;20048;-77
2021/08/31 02:27:23;;;;;;;22.48;14.35;;;12.30;99.90;;;;;;5091700;28;20474;-77
2021/08/31 02:29:49;;;;;;;25.15;16.25;;;12.30;99.90;;;;;;5075737;28;20459;-77
2021/08/31 02:32:14;;;;;;;26.25;16.15;;;12.40;99.90;;;;;;5072692;28;20025;-77
2021/08/31 02:34:40;;;;;;;19.45;13.35;;;12.40;99.90;;;;;;5085451;28;20236;-77
2021/08/31 02:37:06;;;;;;;16.83;12.25;;;12.40;99.90;;;;;;5091445;28;20028;-78
2021/08/31 02:39:32;;;;;;;11.32;7.80;;;12.40;99.90;;;;;;5076818;28;20032;-77
2021/08/31 02:41:57;;;;;;;10.13;8.15;;;12.40;99.90;;;;;;5085808;28;20020;-77
2021/08/31 02:44:23;;;;;;;11.68;6.90;;;12.40;99.90;;;;;;5092112;28;20166;-77
2021/08/31 02:46:48;;;;;;;11.20;8.48;;;12.50;99.90;;;;;;5094206;28;20025;-77
2021/08/31 02:49:14;;;;;;;11.65;7.93;;;12.50;99.90;;;;;;5080538;28;20390;-77
2021/08/31 02:51:40;;;;;;;10.30;8.32;;;12.50;99.90;;;;;;5072309;28;20098;-77
2021/08/31 02:54:05;;;;;;;7.93;6.43;;;12.50;99.90;;;;;;5082469;28;20148;-77
2021/08/31 02:56:31;;;;;;;6.18;5.40;;;12.50;99.90;;;;;;5093274;28;20016;-77
2021/08/31 02:58:56;;;;;;;8.55;6.28;;;12.50;99.90;;;;;;5108543;28;20063;-77
2021/08/31 03:03:53;;;;;;;6.40;5.25;;;12.50;99.90;;;;;;5085246;28;20028;-77
2021/08/31 03:06:19;;;;;;;5.40;4.90;;;12.50;99.90;;;;;;5074879;28;20086;-77
2021/08/31 03:08:44;;;;;;;7.93;5.43;;;12.50;99.90;;;;;;5078030;28;20570;-77
2021/08/31 03:11:10;;;;;;;6.75;5.20;;;12.50;99.90;;;;;;5082369;28;20028;-77
2021/08/31 03:13:36;;;;;;;6.28;5.30;;;12.50;99.90;;;;;;5091561;28;20128;-77
2021/08/31 03:16:02;;;;;;;6.40;5.13;;;12.50;99.90;;;;;;5085864;28;20449;-77
2021/08/31 03:18:27;;;;;;;6.35;5.53;;;12.50;99.90;;;;;;5091653;28;20489;-77
2021/08/31 03:20:53;;;;;;;6.25;4.30;;;12.50;99.90;;;;;;5075833;28;20061;-78
2021/08/31 03:23:19;;;;;;;5.38;3.95;;;12.50;99.90;;;;;;5079066;28;20055;-77
2021/08/31 03:25:44;;;;;;;4.63;3.53;;;12.50;99.90;;;;;;5089453;28;20032;-77
2021/08/31 03:28:10;;;;;;;4.57;4.00;;;12.50;99.90;;;;;;5079195;28;20547;-77
2021/08/31 03:30:36;;;;;;;7.03;4.30;;;12.50;99.90;;;;;;5087339;28;20028;-77
2021/08/31 03:33:02;;;;;;;5.78;4.95;;;12.50;99.90;;;;;;5076353;28;20393;-77
2021/08/31 03:35:28;;;;;;;7.65;6.38;;;12.50;99.90;;;;;;5105582;28;20023;-78
2021/08/31 03:37:54;;;;;;;9.75;7.25;;;12.50;99.90;;;;;;5090449;28;20016;-78
2021/08/31 03:40:19;;;;;;;9.80;7.90;;;12.50;99.90;;;;;;5091378;28;20055;-77
2021/08/31 03:42:46;;;;;;;13.60;9.50;;;12.50;99.90;;;;;;5109181;28;20119;-78
2021/08/31 03:45:13;;;;;;;15.25;10.00;;;12.50;99.90;;;;;;5075650;28;20043;-77
2021/08/31 03:47:39;;;;;;;13.18;9.57;;;12.50;99.90;;;;;;5080479;28;20469;-77
2021/08/31 03:50:06;;;;;;;15.55;11.23;;;12.40;99.90;;;;;;5111321;28;20058;-77
2021/08/31 03:52:31;;;;;;;20.02;14.82;;;12.40;99.90;;;;;;5095256;28;20024;-77
2021/08/31 03:54:57;;;;;;;23.92;15.68;;;12.50;99.90;;;;;;5088018;28;20039;-77
2021/08/31 03:57:23;;;;;;;29.33;18.38;;;12.40;99.90;;;;;;5085963;28;20546;-78
2021/08/31 03:59:48;;;;;;;34.03;20.42;;;12.40;99.90;;;;;;5086127;28;20489;-77
2021/08/31 04:02:15;;;;;;;33.78;20.25;;;12.40;99.90;;;;;;5083859;28;20099;-78
2021/08/31 04:04:41;;;;;;;32.17;21.30;;;12.40;99.90;;;;;;5082881;28;20037;-77
2021/08/31 04:07:06;;;;;;;32.35;19.10;;;12.40;99.90;;;;;;5084943;28;20035;-77
2021/08/31 04:09:32;;;;;;;27.15;18.65;;;12.40;99.90;;;;;;5085926;28;20074;-77
2021/08/31 04:11:58;;;;;;;33.17;19.00;;;12.40;99.90;;;;;;5086160;28;20035;-77
2021/08/31 04:14:23;;;;;;;33.75;20.92;;;12.40;99.90;;;;;;5082063;28;20043;-77
2021/08/31 04:16:49;;;;;;;31.95;19.80;;;12.40;99.90;;;;;;5086453;28;20031;-77
2021/08/31 04:19:15;;;;;;;38.28;22.00;;;12.40;99.90;;;;;;5087409;28;20119;-77
2021/08/31 04:21:40;;;;;;;36.83;20.90;;;12.30;99.90;;;;;;5089019;28;20019;-77
2021/08/31 04:24:06;;;;;;;35.85;22.90;;;12.30;99.90;;;;;;5083494;28;20044;-77
2021/08/31 04:26:32;;;;;;;33.67;21.15;;;12.30;99.90;;;;;;5086297;28;20020;-77
2021/08/31 04:28:57;;;;;;;32.28;20.88;;;12.30;99.90;;;;;;5079990;28;20029;-77
2021/08/31 04:31:23;;;;;;;31.83;19.42;;;12.30;99.90;;;;;;5084131;28;20073;-77
2021/08/31 04:33:50;;;;;;;31.83;19.77;;;12.30;99.90;;;;;;5085549;28;20039;-77
2021/08/31 04:36:15;;;;;;;34.30;21.83;;;12.30;99.90;;;;;;5083232;28;20027;-77
2021/08/31 04:38:41;;;;;;;28.05;18.58;;;12.30;99.90;;;;;;5086402;28;20404;-77
2021/08/31 04:41:07;;;;;;;28.67;19.35;;;12.30;99.90;;;;;;5082499;28;20061;-77
2021/08/31 04:43:33;;;;;;;33.17;19.85;;;12.30;99.90;;;;;;5083591;28;20017;-77
2021/08/31 04:45:59;;;;;;;25.63;16.77;;;12.30;99.90;;;;;;5083236;28;20428;-77
2021/08/31 04:48:24;;;;;;;23.15;14.93;;;12.30;99.90;;;;;;5083880;28;20035;-77
2021/08/31 04:50:50;;;;;;;23.20;14.32;;;12.20;99.90;;;;;;5082912;28;20020;-77
2021/08/31 04:53:16;;;;;;;22.38;14.50;;;12.30;99.90;;;;;;5089398;28;20024;-78
2021/08/31 04:55:43;;;;;;;19.92;12.48;;;12.30;99.90;;;;;;5088243;28;20384;-77
2021/08/31 04:58:09;;;;;;;15.02;10.50;;;12.30;99.90;;;;;;5088713;28;20043;-76
2021/08/31 05:00:34;;;;;;;14.05;10.38;;;12.30;99.90;;;;;;5086024;28;20024;-77
2021/08/31 05:03:00;;;;;;;13.38;10.10;;;12.30;99.90;;;;;;5087817;28;20021;-77
2021/08/31 05:05:26;;;;;;;12.45;8.75;;;12.20;99.90;;;;;;5084885;28;20066;-77
2021/08/31 05:07:51;;;;;;;10.75;8.02;;;12.20;99.90;;;;;;5080110;28;20023;-77
2021/08/31 05:10:17;;;;;;;10.50;7.10;;;12.20;99.90;;;;;;5086531;28;20043;-77
2021/08/31 05:12:43;;;;;;;9.68;7.10;;;12.20;99.90;;;;;;5099644;28;20016;-78
2021/08/31 05:15:09;;;;;;;10.32;7.70;;;12.20;99.90;;;;;;5088097;28;20040;-77
2021/08/31 05:17:36;;;;;;;10.02;8.35;;;12.20;99.90;;;;;;5089019;28;20114;-77
2021/08/31 05:20:05;;;;;;;12.80;9.50;;;12.20;99.90;;;;;;5103609;28;20403;-77
2021/08/31 05:22:31;;;;;;;14.27;9.38;;;12.20;99.90;;;;;;5085179;28;20016;-77
2021/08/31 05:25:00;;;;;;;15.35;9.50;;;12.20;99.90;;;;;;5087586;28;20104;-77
2021/08/31 05:27:26;;;;;;;15.57;10.75;;;12.20;99.90;;;;;;5086995;28;20436;-77
2021/08/31 05:29:52;;;;;;;18.17;11.52;;;12.20;99.90;;;;;;5089832;28;20105;-77
2021/08/31 05:32:18;;;;;;;21.30;13.93;;;12.20;99.90;;;;;;5081556;28;20406;-77
2021/08/31 05:34:44;;;;;;;21.95;13.32;;;12.20;99.90;;;;;;5075045;28;20119;-76
2021/08/31 05:37:09;;;;;;;24.27;16.38;;;12.20;99.90;;;;;;5092235;28;20575;-77
2021/08/31 05:39:35;;;;;;;26.33;15.27;;;12.20;99.90;;;;;;5073342;28;20040;-76
2021/08/31 05:42:04;;;;;;;33.38;17.80;;;12.30;99.90;;;;;;5091264;28;20027;-76
2021/08/31 05:44:30;;;;;;;38.88;19.20;;;12.30;99.90;;;;;;5084795;28;20044;-76
2021/08/31 05:46:56;;;;;;;29.40;17.70;;;12.30;99.90;;;;;;5079835;28;20027;-77
2021/08/31 05:49:22;;;;;;;23.88;14.35;;;12.30;99.90;;;;;;5085691;28;20123;-77
2021/08/31 05:51:50;;;;;;;25.17;13.90;;;12.30;99.90;;;;;;5090423;28;20024;-77
2021/08/31 05:54:16;;;;;;;23.55;15.00;;;12.30;99.90;;;;;;5088436;28;20116;-76
2021/08/31 05:56:41;;;;;;;20.38;12.27;;;12.30;99.90;;;;;;5088241;28;20119;-77
2021/08/31 05:59:07;;;;;;;18.45;11.38;;;12.30;99.90;;;;;;5090944;28;20020;-76
2021/08/31 06:01:33;;;;;;;22.05;12.85;;;12.30;99.90;;;;;;5088819;28;20066;-76
2021/08/31 06:03:59;;;;;;;17.88;12.27;;;12.30;99.90;;;;;;5090132;28;20043;-77
2021/08/31 06:06:24;;;;;;;19.25;13.38;;;12.30;99.90;;;;;;5089925;28;20474;-77
2021/08/31 06:08:50;;;;;;;17.80;12.15;;;12.30;99.90;;;;;;5090781;28;20030;-76
2021/08/31 06:11:18;;;;;;;18.42;11.55;;;12.40;99.90;;;;;;5091228;28;20047;-77
2021/08/31 06:13:44;;;;;;;18.15;11.02;;;12.40;99.90;;;;;;5080992;28;20032;-77
2021/08/31 06:16:09;;;;;;;15.30;10.07;;;12.40;99.90;;;;;;5076033;28;20024;-77
2021/08/31 06:18:35;;;;;;;17.52;10.82;;;12.40;99.90;;;;;;5077565;28;20032;-77
2021/08/31 06:21:01;;;;;;;16.15;9.15;;;12.50;99.90;;;;;;5089115;28;20473;-76
2021/08/31 06:23:27;;;;;;;14.02;9.40;;;12.50;99.90;;;;;;5088697;28;20481;-77
2021/08/31 06:25:53;;;;;;;14.88;8.85;;;12.40;99.90;;;;;;5091839;28;20032;-76
2021/08/31 06:28:18;;;;;;;12.25;8.68;;;12.50;99.90;;;;;;5089987;28;20046;-76
2021/08/31 06:30:44;;;;;;;14.38;8.45;;;12.50;99.90;;;;;;5093008;28;20024;-76
2021/08/31 06:33:10;;;;;;;14.27;9.02;;;12.50;99.90;;;;;;5095686;28;20055;-76
2021/08/31 06:35:35;;;;;;;12.45;8.95;;;12.40;99.90;;;;;;5094430;28;20392;-77
2021/08/31 06:38:01;;;;;;;14.65;9.77;;;12.50;99.90;;;;;;5095008;28;20032;-77
2021/08/31 06:40:26;;;;;;;14.45;10.75;;;12.50;99.90;;;;;;5078240;28;20025;-76
2021/08/31 06:42:52;;;;;;;19.77;13.38;;;12.50;99.90;;;;;;5074237;28;20413;-76
2021/08/31 06:45:18;;;;;;;21.90;13.13;;;12.50;99.90;;;;;;5074006;28;20035;-76
2021/08/31 06:47:44;;;;;;;19.30;11.73;;;12.50;99.90;;;;;;5076276;28;20396;-77
2021/08/31 06:50:14;;;;;;;21.63;13.00;;;12.50;99.90;;;;;;5093421;28;20020;-77
2021/08/31 06:52:40;;;;;;;26.00;13.93;;;12.50;99.90;;;;;;5093738;28;20047;-76
2021/08/31 06:55:07;;;;;;;23.50;14.50;;;12.50;99.90;;;;;;5089283;28;20038;-76
2021/08/31 06:57:33;;;;;;;31.50;17.45;;;12.60;99.90;;;;;;5083987;28;20021;-76
2021/08/31 06:59:59;;;;;;;30.38;17.05;;;12.60;99.90;;;;;;5093029;28;20034;-76
2021/08/31 07:02:25;;;;;;;28.60;16.27;;;12.60;99.90;;;;;;5081756;28;20778;-76
2021/08/31 07:04:52;;;;;;;39.25;17.60;;;12.60;99.90;;;;;;5073909;28;20074;-76
2021/08/31 07:07:18;;;;;;;31.73;18.15;;;12.60;99.90;;;;;;5074306;28;20393;-77
2021/08/31 07:09:44;;;;;;;31.70;17.98;;;12.60;99.90;;;;;;5090291;28;20024;-76
2021/08/31 07:12:11;;;;;;;26.08;16.20;;;12.60;99.90;;;;;;5087145;28;20025;-78
2021/08/31 07:14:37;;;;;;;24.42;15.15;;;12.70;99.90;;;;;;5073737;28;20052;-77
2021/08/31 07:17:03;;;;;;;32.08;17.45;;;12.60;99.90;;;;;;5072933;28;20029;-76
2021/08/31 07:19:29;;;;;;;26.13;15.07;;;12.60;99.90;;;;;;5088018;28;20032;-76
2021/08/31 07:21:55;;;;;;;26.73;16.40;;;12.70;99.90;;;;;;5092892;28;20381;-77
2021/08/31 07:24:21;;;;;;;20.38;12.43;;;12.70;99.90;;;;;;5095052;28;20070;-76
2021/08/31 07:26:47;;;;;;;18.58;10.50;;;12.60;99.90;;;;;;5095120;28;20039;-76
2021/08/31 07:29:12;;;;;;;18.63;9.88;;;12.60;99.90;;;;;;5094798;28;20024;-77
2021/08/31 07:31:38;;;;;;;28.77;15.27;;;12.60;99.90;;;;;;5093956;28;20024;-76
2021/08/31 07:34:04;;;;;;;15.18;8.52;;;12.60;99.90;;;;;;5093485;28;20403;-76
2021/08/31 07:36:29;;;;;;;9.68;5.35;;;12.70;99.90;;;;;;5094974;28;20020;-77
2021/08/31 07:38:55;;;;;;;19.42;16.23;;;12.70;99.90;;;;;;5094928;28;20035;-77
2021/08/31 07:41:22;;;;;;;10.95;8.20;;;12.80;99.90;;;;;;5093228;28;20370;-77
2021/08/31 07:43:48;;;;;;;4.80;2.47;;;12.80;99.90;;;;;;5090985;28;20078;-77
2021/08/31 07:46:14;;;;;;;7.57;2.83;;;12.80;99.90;;;;;;5093146;28;20032;-77
2021/08/31 07:48:40;;;;;;;3.08;2.78;;;12.80;99.90;;;;;;5078935;28;20401;-77
2021/08/31 07:51:05;;;;;;;5.93;4.93;;;12.80;99.90;;;;;;5092877;28;20024;-77
2021/08/31 07:53:31;;;;;;;8.45;7.75;;;12.90;99.90;;;;;;5087493;28;20024;-77
2021/08/31 07:55:57;;;;;;;3.00;2.40;;;12.90;99.90;;;;;;5093542;28;20111;-76
2021/08/31 07:58:22;;;;;;;2.55;2.25;;;12.90;99.90;;;;;;5094526;28;20533;-77
2021/08/31 08:00:48;;;;;;;3.55;2.78;;;12.90;99.90;;;;;;5094022;28;20395;-77
2021/08/31 08:03:14;;;;;;;2.25;1.90;;;13.00;99.90;;;;;;5093042;28;20035;-77
2021/08/31 08:05:39;;;;;;;1.85;1.75;;;13.00;99.90;;;;;;5094199;28;20044;-77
2021/08/31 08:08:05;;;;;;;2.40;2.20;;;13.10;99.90;;;;;;5092748;28;20192;-78
2021/08/31 08:10:31;;;;;;;3.13;2.78;;;13.20;99.90;;;;;;5081919;28;20036;-77
2021/08/31 08:12:56;;;;;;;5.15;4.32;;;13.20;99.90;;;;;;5091884;28;20481;-78
2021/08/31 08:15:23;;;;;;;4.63;3.70;;;13.30;99.90;;;;;;5083764;28;20051;-77
2021/08/31 08:17:49;;;;;;;5.50;4.70;;;13.30;99.90;;;;;;5080077;28;20020;-78
2021/08/31 08:20:15;;;;;;;5.60;5.00;;;13.30;99.90;;;;;;5109996;28;20039;-78
2021/08/31 08:22:40;;;;;;;11.50;7.13;;;13.40;99.90;;;;;;5093148;28;20020;-78
2021/08/31 08:25:07;;;;;;;10.45;7.72;;;13.40;99.90;;;;;;5074659;28;20367;-77
2021/08/31 08:27:33;;;;;;;12.43;8.43;;;13.50;99.90;;;;;;5083810;28;20124;-77
2021/08/31 08:29:59;;;;;;;13.70;9.73;;;13.50;99.90;;;;;;5093046;28;20170;-78
2021/08/31 08:32:25;;;;;;;16.05;9.52;;;13.50;99.90;;;;;;5093607;28;20028;-78
2021/08/31 08:34:51;;;;;;;13.73;9.13;;;13.60;99.90;;;;;;5093084;28;20492;-77
2021/08/31 08:37:17;;;;;;;14.40;9.68;;;13.60;99.90;;;;;;5093144;28;20042;-77
2021/08/31 08:39:42;;;;;;;14.93;9.77;;;13.60;99.90;;;;;;5091771;28;20469;-78
2021/08/31 08:42:09;;;;;;;11.82;7.88;;;13.70;99.90;;;;;;5094457;28;20358;-78
2021/08/31 08:44:35;;;;;;;10.77;7.70;;;13.70;99.90;;;;;;5093926;28;20045;-78
2021/08/31 08:47:02;;;;;;;12.23;9.25;;;13.70;99.90;;;;;;5094476;28;20381;-78
2021/08/31 08:49:28;;;;;;;9.93;7.43;;;13.70;99.90;;;;;;5080139;28;20032;-77
2021/08/31 08:51:57;;;;;;;10.65;7.78;;;13.70;99.90;;;;;;5075051;28;20065;-77
2021/08/31 08:54:23;;;;;;;10.05;6.68;;;13.70;99.90;;;;;;5081527;28;20028;-78
2021/08/31 08:56:51;;;;;;;8.15;6.25;;;13.80;99.90;;;;;;5106778;28;20024;-77
2021/08/31 08:59:17;;;;;;;8.18;6.05;;;13.90;99.90;;;;;;5094019;28;20072;-78
2021/08/31 09:01:43;;;;;;;8.73;6.80;;;14.00;99.90;;;;;;5105292;28;20111;-79
2021/08/31 09:04:09;;;;;;;6.57;5.85;;;14.20;99.90;;;;;;5080024;28;20048;-78
2021/08/31 09:06:35;;;;;;;12.32;7.90;;;14.30;99.90;;;;;;5082992;28;20035;-78
2021/08/31 09:09:03;;;;;;;10.52;6.55;;;14.50;99.90;;;;;;5083728;28;20385;-78
2021/08/31 09:11:40;;;;;;;8.63;7.07;;;14.50;99.90;;;;;;5072405;28;20009;-78
2021/08/31 09:14:32;;;;;;;6.97;6.22;;;14.60;99.90;;;;;;5080416;28;20027;-79
2021/08/31 09:17:00;;;;;;;7.37;5.33;;;14.70;99.90;;;;;;5092725;28;20451;-79
2021/08/31 09:19:32;;;;;;;6.85;5.60;;;14.70;99.90;;;;;;5084352;28;20092;-79
2021/08/31 09:22:16;;;;;;;7.63;6.00;;;14.70;99.90;;;;;;5099515;28;20052;-79
2021/08/31 09:25:05;;;;;;;8.23;5.88;;;14.80;99.90;;;;;;5089532;28;20453;-79
2021/08/31 09:27:40;;;;;;;9.02;6.68;;;14.80;99.90;;;;;;5109504;28;20385;-79
2021/08/31 09:30:15;;;;;;;7.13;5.75;;;14.90;99.90;;;;;;5096377;28;20028;-78
2021/08/31 09:33:09;;;;;;;10.00;6.18;;;15.10;99.90;;;;;;5109021;28;20035;-79
2021/08/31 09:35:47;;;;;;;13.02;8.35;;;15.30;99.90;;;;;;5093333;28;20484;-78
2021/08/31 09:38:18;;;;;;;8.32;6.35;;;15.40;99.90;;;;;;5093508;28;20024;-78
2021/08/31 09:40:46;;;;;;;12.35;8.57;;;15.50;99.90;;;;;;5083223;28;20025;-78
2021/08/31 09:43:18;;;;;;;10.13;7.43;;;15.50;99.90;;;;;;5091327;28;20032;-78
2021/08/31 09:45:50;;;;;;;6.55;5.82;;;15.40;99.90;;;;;;5086166;28;20036;-79
2021/08/31 09:48:20;;;;;;;5.85;5.25;;;15.40;99.90;;;;;;5078251;28;20020;-78
2021/08/31 09:50:52;;;;;;;8.90;6.90;;;15.30;99.90;;;;;;5108822;28;20024;-78
2021/08/31 09:53:19;;;;;;;6.00;4.83;;;15.20;99.90;;;;;;5078956;28;20115;-78
2021/08/31 09:55:48;;;;;;;6.15;5.20;;;15.20;99.90;;;;;;5082851;28;20297;-78
2021/08/31 09:58:23;;;;;;;13.88;9.73;;;15.20;99.90;;;;;;5101085;28;20390;-79
2021/08/31 10:00:52;;;;;;;6.03;5.15;;;15.20;99.90;;;;;;5084204;28;20036;-79
2021/08/31 10:03:19;;;;;;;5.70;4.85;;;15.10;99.90;;;;;;5071401;28;20051;-79
2021/08/31 10:05:46;;;;;;;6.55;4.97;;;15.00;99.90;;;;;;5082973;28;20079;-79
2021/08/31 10:08:13;;;;;;;6.85;5.30;;;15.00;99.90;;;;;;5075253;28;20416;-79
2021/08/31 10:10:41;;;;;;;5.32;4.30;;;15.00;99.90;;;;;;5078566;28;20103;-79
2021/08/31 10:13:21;;;;;;;5.07;3.85;;;15.00;99.90;;;;;;5072013;28;20036;-79
2021/08/31 10:15:52;;;;;;;3.15;2.85;;;15.10;99.90;;;;;;5090370;28;20028;-79
2021/08/31 10:18:20;;;;;;;4.38;3.75;;;15.20;99.90;;;;;;5090597;28;20027;-79
2021/08/31 10:20:52;;;;;;;3.55;2.90;;;15.20;99.90;;;;;;5075067;28;20122;-79
2021/08/31 10:23:37;;;;;;;4.15;3.72;;;15.30;99.90;;;;;;5070687;28;20051;-78
2021/08/31 10:26:26;;;;;;;3.50;3.17;;;15.30;99.90;;;;;;5080781;28;20090;-77
2021/08/31 10:29:21;;;;;;;4.68;4.28;;;15.50;99.90;;;;;;5077032;28;20044;-78
2021/08/31 10:31:52;;;;;;;13.30;7.15;;;15.80;99.90;;;;;;5086853;28;20477;-77
2021/08/31 10:34:30;;;;;;;7.68;5.38;;;15.90;99.90;;;;;;5075740;28;20063;-77
2021/08/31 10:37:15;;;;;;;7.75;5.35;;;16.00;99.90;;;;;;5086134;28;20032;-77
2021/08/31 10:39:52;;;;;;;7.00;5.35;;;16.20;99.90;;;;;;5080341;28;20407;-78
2021/08/31 10:42:26;;;;;;;4.93;3.72;;;16.30;99.90;;;;;;5068819;28;20035;-77
2021/08/31 10:44:54;;;;;;;5.75;5.13;;;16.30;99.90;;;;;;5090532;28;20114;-78
2021/08/31 10:47:39;;;;;;;7.03;5.53;;;16.20;99.90;;;;;;5090844;28;20040;-78
2021/08/31 10:50:10;;;;;;;4.70;4.22;;;16.20;99.90;;;;;;5069972;28;20027;-78
2021/08/31 10:52:37;;;;;;;5.07;4.07;;;16.10;99.90;;;;;;5070436;28;20045;-77
2021/08/31 10:55:23;;;;;;;3.88;3.55;;;16.10;99.90;;;;;;5075885;28;20024;-77
2021/08/31 10:57:53;;;;;;;3.90;3.50;;;16.00;99.90;;;;;;5087879;28;20469;-78
2021/08/31 11:00:19;;;;;;;3.65;3.22;;;15.90;99.90;;;;;;5068487;28;20100;-79
2021/08/31 11:05:22;;;;;;;3.33;3.00;;;15.80;99.90;;;;;;5074961;28;20682;-78
2021/08/31 11:07:54;;;;;;;2.30;2.10;;;15.70;99.90;;;;;;5105723;28;20020;-78
2021/08/31 11:10:31;;;;;;;2.92;1.95;;;15.50;99.90;;;;;;5106068;28;20465;-78
2021/08/31 11:13:07;;;;;;;2.08;1.85;;;15.30;99.90;;;;;;5086247;28;20035;-77
2021/08/31 11:15:33;;;;;;;1.88;1.73;;;15.10;99.90;;;;;;5068680;28;20024;-77
2021/08/31 11:17:58;;;;;;;1.38;1.23;;;15.00;99.90;;;;;;5070383;28;20033;-78
2021/08/31 11:20:32;;;;;;;1.95;1.77;;;14.90;99.90;;;;;;5099519;27;20098;-78
2021/08/31 11:23:19;;;;;;;1.67;1.58;;;14.80;99.90;;;;;;5112180;28;20024;-77
2021/08/31 11:25:49;;;;;;;1.75;1.65;;;14.80;99.90;;;;;;5101844;28;20040;-77
2021/08/31 11:28:33;;;;;;;2.63;2.10;;;14.80;99.90;;;;;;5093591;28;20020;-77
2021/08/31 11:31:13;;;;;;;1.73;1.63;;;14.80;99.90;;;;;;5091072;28;20131;-77
2021/08/31 11:33:46;;;;;;;2.35;1.50;;;14.70;99.90;;;;;;5105455;28;20393;-77
2021/08/31 11:36:18;;;;;;;3.10;2.17;;;14.60;99.90;;;;;;5091779;28;20048;-77
2021/08/31 11:38:49;;;;;;;4.05;2.50;;;14.60;99.90;;;;;;5093264;28;20142;-77
2021/08/31 11:41:21;;;;;;;1.33;1.23;;;14.60;99.90;;;;;;5092473;28;20385;-77
2021/08/31 11:43:57;;;;;;;2.15;1.60;;;14.60;99.90;;;;;;5091549;28;20031;-77
2021/08/31 11:46:28;;;;;;;3.70;3.25;;;14.70;99.90;;;;;;5091829;28;20150;-77
2021/08/31 11:49:12;;;;;;;10.30;7.82;;;14.80;99.90;;;;;;5088967;28;20024;-78
2021/08/31 11:51:38;;;;;;;20.63;14.60;;;14.80;99.90;;;;;;5092291;28;20493;-78
2021/08/31 11:54:06;;;;;;;30.00;19.65;;;14.90;99.90;;;;;;5089109;28;20114;-78
2021/08/31 11:56:33;;;;;;;32.88;20.65;;;14.90;99.90;;;;;;5091296;28;20130;-78
2021/08/31 11:58:58;;;;;;;3.90;3.00;;;15.00;99.90;;;;;;5087537;28;20032;-78
2021/08/31 12:01:28;;;;;;;2.72;2.47;;;15.00;99.90;;;;;;5092790;28;20435;-78
2021/08/31 12:03:54;;;;;;;2.25;2.05;;;15.10;99.90;;;;;;5089118;28;20020;-78
2021/08/31 12:06:21;;;;;;;45.65;28.92;;;15.20;99.90;;;;;;5092214;28;20044;-78
2021/08/31 12:08:47;;;;;;;181.52;110.00;;;15.20;99.90;;;;;;5093056;28;20103;-78
2021/08/31 12:11:14;;;;;;;221.20;136.43;;;15.20;99.90;;;;;;5081293;28;20131;-78
2021/08/31 12:13:46;;;;;;;135.90;89.78;;;15.20;99.90;;;;;;5078141;28;20017;-77
2021/08/31 12:16:14;;;;;;;114.88;74.75;;;15.20;99.90;;;;;;5075639;28;20052;-77
2021/08/31 12:18:40;;;;;;;19.63;13.55;;;15.30;99.90;;;;;;5092393;28;20020;-77
2021/08/31 12:21:23;;;;;;;55.38;37.30;;;15.40;99.90;;;;;;5073976;28;20496;-77
2021/08/31 12:23:51;;;;;;;18.33;12.82;;;15.50;99.90;;;;;;5081808;28;20028;-77
2021/08/31 12:26:33;;;;;;;23.33;14.88;;;15.50;99.90;;;;;;5083225;28;20100;-77
2021/08/31 12:29:05;;;;;;;6.95;5.88;;;15.50;99.90;;;;;;5074560;28;20017;-77
2021/08/31 12:31:31;;;;;;;4.18;3.58;;;15.60;99.90;;;;;;5077195;28;20051;-77
2021/08/31 12:33:57;;;;;;;10.90;7.03;;;15.60;99.90;;;;;;5084183;28;20473;-77
2021/08/31 12:36:34;;;;;;;4.00;3.55;;;15.60;99.90;;;;;;5104705;28;20028;-77
2021/08/31 12:39:06;;;;;;;6.32;2.97;;;15.60;99.90;;;;;;5091872;28;20020;-77
2021/08/31 12:41:42;;;;;;;3.58;3.25;;;15.70;99.90;;;;;;5108289;28;20044;-78
2021/08/31 12:44:16;;;;;;;4.05;3.65;;;15.80;99.90;;;;;;5090609;28;20027;-76